This is the latest recevied weather packets stored in our database for station/object N7TUG-8. If no packets are shown the sender has not sent any weather packets the latest 10 day(s).
| Time | Temp. | Humidity | Pressure | Rain* | Wind** | Luminosity | Snow |
|---|---|---|---|---|---|---|---|
| 1777582076 | 19.44° C | 65% | 1018.2 hPa | 0 mm | 1.34 m/s, 272° | - | - |
| 1777581136 | 20° C | 64% | 1018.4 hPa | 0 mm | 2.24 m/s, 297° | - | - |
| 1777580281 | 20° C | 64% | 1018.5 hPa | 0 mm | 1.34 m/s, 263° | - | - |
| 1777579486 | 19.44° C | 64% | 1018.5 hPa | 0 mm | 2.24 m/s, 306° | - | - |
| 1777579057 | 20° C | 64% | 1018.6 hPa | 0 mm | 1.34 m/s, 320° | - | - |
| 1777578666 | 18.89° C | 66% | 1018.6 hPa | 0 mm | 2.24 m/s, 338° | - | - |
| 1777578327 | 18.33° C | 67% | 1018.6 hPa | 0 mm | 2.24 m/s, 342° | - | - |
| 1777577706 | 18.33° C | 68% | 1018.9 hPa | 0 mm | 2.24 m/s, 325° | - | - |
| 1777577557 | 18.33° C | 68% | 1018.9 hPa | 0 mm | 2.24 m/s, 325° | - | - |
| 1777576846 | 18.33° C | 68% | 1019 hPa | 0 mm | 2.24 m/s, 325° | - | - |
| 1777576016 | 17.78° C | 68% | 1019.2 hPa | 0 mm | 2.24 m/s, 332° | - | - |
| 1777575912 | 17.78° C | 67% | 1019.2 hPa | 0 mm | 2.24 m/s, 344° | - | - |
| 1777575251 | 18.33° C | 68% | 1019.3 hPa | 0 mm | 1.34 m/s, 281° | - | - |
| 1777574301 | 17.22° C | 68% | 1019.5 hPa | 0 mm | 2.68 m/s, 291° | - | - |
| 1777574253 | 17.22° C | 68% | 1019.5 hPa | 0 mm | 2.68 m/s, 291° | - | - |
| 1777573466 | 17.78° C | 70% | 1019.6 hPa | 0 mm | 0.89 m/s, 276° | - | - |
| 1777573373 | 17.78° C | 70% | 1019.6 hPa | 0 mm | 0.89 m/s, 276° | - | - |
| 1777572637 | 16.11° C | 74% | 1019.8 hPa | 0 mm | 2.68 m/s, 304° | - | - |
| 1777572566 | 15.56° C | 74% | 1019.7 hPa | 0 mm | 2.68 m/s, 307° | - | - |
| 1777571897 | 15.56° C | 75% | 1020 hPa | 0 mm | 3.13 m/s, 305° | - | - |
| 1777571801 | 15.56° C | 75% | 1020 hPa | 0 mm | 3.13 m/s, 305° | - | - |
| 1777571031 | 16.67° C | 72% | 1020.1 hPa | 0 mm | 1.34 m/s, 232° | - | - |
| 1777570185 | 16.11° C | 73% | 1020.3 hPa | 0 mm | 1.79 m/s, 239° | - | - |
| 1777570076 | 16.11° C | 73% | 1020.3 hPa | 0 mm | 1.79 m/s, 239° | - | - |
| 1777569332 | 15.56° C | 74% | 1020.4 hPa | 0 mm | 1.34 m/s, 277° | - | - |
* Rain latest hour (hover to see other rain measurements)
** Current wind speed in m/s (hover to see current wind gust speed)